Albert Lea, Minnesota
Current Conditions -  °F | °C
As of 2:54 AM on Wednesday 28 Jan 2015 (Local Time) from KAEL Reporting Station
Haze Haze  
Wind Chill: -9°   Ceiling: 600
Heat Index: -2°   Visibility: 2.5mi
Dew Point: -2°   Wind: 16mph
Humidity: 100%   Direction: 150°SSE
Pressure: 30.07"   Gusts: 20mph
Location:  43.65°N, 93.37°W
Report Text: KAEL 280854Z AUTO 15014G17KT 2 1/2SM BR OVC006 M02/M02 A3007 RMK AO2
Loading
Personal Weather Stations






























Interactive Weather Map New forecast layout! Learn more

10-Day Weather Forecast

Advertisements
Track Severe Weather on mobile